Time;durP1;ratioP1;P1;durP2;ratioP2;P2;SDS_P1;SDS_P2;PMS_P1;PMS_P2;Temp;Humidity;BMP_temperature;BMP_pressure;BME280_temperature;BME280_humidity;BME280_pressure;Samples;Min_cycle;Max_cycle;Signal;HPM_P1;HPM_P2
2022/11/19 00:00:02;;;;;;;;;;;11.20;99.90;;;;;;7336626;19;111432;-77
2022/11/19 00:02:29;;;;;;;;;;;11.20;99.90;;;;;;7336419;19;108503;-77
2022/11/19 00:04:57;;;;;;;;;;;11.20;99.90;;;;;;7342446;19;112235;-77
2022/11/19 00:07:23;;;;;;;;;;;11.20;99.90;;;;;;7335764;19;108518;-77
2022/11/19 00:09:50;;;;;;;;;;;11.20;99.90;;;;;;7333890;19;109379;-77
2022/11/19 00:15:03;;;;;;;;;;;11.20;99.90;;;;;;7336515;19;108695;-77
2022/11/19 00:17:30;;;;;;;;;;;11.20;99.90;;;;;;7335788;19;109441;-77
2022/11/19 00:19:57;;;;;;;;;;;11.20;99.90;;;;;;7338258;19;110739;-77
2022/11/19 00:22:24;;;;;;;;;;;11.20;99.90;;;;;;7336577;19;109692;-78
2022/11/19 00:24:51;;;;;;;;;;;11.20;99.90;;;;;;7333571;19;109192;-77
2022/11/19 00:27:17;;;;;;;;;;;11.20;99.90;;;;;;7340370;19;111244;-77
2022/11/19 00:29:44;;;;;;;;;;;11.20;99.90;;;;;;7337905;19;109667;-77
2022/11/19 00:32:11;;;;;;;;;;;11.20;99.90;;;;;;7336258;19;109789;-77
2022/11/19 00:34:38;;;;;;;;;;;11.20;99.90;;;;;;7333851;19;108459;-77
2022/11/19 00:37:05;;;;;;;;;;;11.30;99.90;;;;;;7337864;19;108171;-77
2022/11/19 00:39:32;;;;;;;;;;;11.20;99.90;;;;;;7333393;19;110801;-77
2022/11/19 00:41:59;;;;;;;;;;;11.30;99.90;;;;;;7334809;19;109804;-77
2022/11/19 00:44:25;;;;;;;;;;;11.20;99.90;;;;;;7336093;19;111708;-77
2022/11/19 00:46:56;;;;;;;;;;;11.20;99.90;;;;;;7335492;19;109200;-77
2022/11/19 00:49:23;;;;;;;;;;;11.20;99.90;;;;;;7342654;19;108868;-77
2022/11/19 00:51:50;;;;;;;;;;;11.20;99.90;;;;;;7333737;19;110784;-77
2022/11/19 00:54:17;;;;;;;;;;;11.20;99.90;;;;;;7336432;19;109135;-77
2022/11/19 00:56:44;;;;;;;;;;;11.20;99.90;;;;;;7333073;19;109581;-77
2022/11/19 00:59:11;;;;;;;;;;;11.20;99.90;;;;;;7335830;19;109434;-77
2022/11/19 01:01:38;;;;;;;;;;;11.20;99.90;;;;;;7334829;19;109379;-77
2022/11/19 01:04:05;;;;;;;;;;;11.20;99.90;;;;;;7335737;19;113622;-76
2022/11/19 01:06:32;;;;;;;;;;;11.20;99.90;;;;;;7334453;19;110693;-77
2022/11/19 01:08:59;;;;;;;;;;;11.20;99.90;;;;;;7334807;19;109394;-77
2022/11/19 01:11:27;;;;;;;;;;;11.20;99.90;;;;;;7338338;19;109373;-77
2022/11/19 01:13:54;;;;;;;;;;;11.20;99.90;;;;;;7335806;19;108350;-77
2022/11/19 01:16:27;;;;;;;;;;;11.20;99.90;;;;;;7335515;19;113567;-77
2022/11/19 01:18:54;;;;;;;;;;;11.20;99.90;;;;;;7334387;19;110428;-77
2022/11/19 01:21:22;;;;;;;;;;;11.20;99.90;;;;;;7334507;19;108477;-77
2022/11/19 01:23:49;;;;;;;;;;;11.20;99.90;;;;;;7332942;19;110137;-77
2022/11/19 01:26:16;;;;;;;;;;;11.10;99.90;;;;;;7329971;19;110614;-77
2022/11/19 01:28:43;;;;;;;;;;;11.20;99.90;;;;;;7330669;19;109559;-78
2022/11/19 01:31:12;;;;;;;;;;;11.20;99.90;;;;;;7332971;19;108975;-77
2022/11/19 01:33:39;;;;;;;;;;;11.20;99.90;;;;;;7338497;19;110535;-77
2022/11/19 01:36:09;;;;;;;;;;;11.20;99.90;;;;;;7333823;19;109488;-77
2022/11/19 01:38:36;;;;;;;;;;;11.20;99.90;;;;;;7333582;19;112472;-77
2022/11/19 01:41:04;;;;;;;;;;;11.20;99.90;;;;;;7336937;19;109449;-77
2022/11/19 01:43:43;;;;;;;;;;;11.20;99.90;;;;;;7334053;19;109190;-77
2022/11/19 01:46:10;;;;;;;;;;;11.20;99.90;;;;;;7335543;19;109907;-77
2022/11/19 01:49:00;;;;;;;;;;;11.20;99.90;;;;;;7332871;19;108441;-77
2022/11/19 01:51:29;;;;;;;;;;;11.20;99.90;;;;;;7334224;19;109766;-77
2022/11/19 01:53:59;;;;;;;;;;;11.20;99.90;;;;;;7337214;19;111632;-77
2022/11/19 01:56:27;;;;;;;;;;;11.10;99.90;;;;;;7331733;19;110813;-77
2022/11/19 01:59:04;;;;;;;;;;;11.10;99.90;;;;;;7333533;19;110118;-77
2022/11/19 02:01:31;;;;;;;;;;;11.20;99.90;;;;;;7333651;19;112832;-77
2022/11/19 02:03:59;;;;;;;;;;;11.20;99.90;;;;;;7333505;19;109392;-78
2022/11/19 02:06:28;;;;;;;;;;;11.20;99.90;;;;;;7331265;19;109813;-77
2022/11/19 02:08:55;;;;;;;;;;;11.20;99.90;;;;;;7332731;19;108429;-77
2022/11/19 02:11:41;;;;;;;;;;;11.20;99.90;;;;;;7334174;19;108707;-77
2022/11/19 02:14:16;;;;;;;;;;;11.20;99.90;;;;;;7333034;19;111115;-77
2022/11/19 02:16:43;;;;;;;;;;;11.20;99.90;;;;;;7338407;19;108455;-77
2022/11/19 02:19:16;;;;;;;;;;;11.20;99.90;;;;;;7332102;19;110310;-78
2022/11/19 02:22:07;;;;;;;;;;;11.20;99.90;;;;;;7330191;19;108393;-77
2022/11/19 02:24:59;;;;;;;;;;;11.20;99.90;;;;;;7330316;19;108833;-76
2022/11/19 02:27:45;;;;;;;;;;;11.10;99.90;;;;;;7330446;19;110719;-76
2022/11/19 02:30:15;;;;;;;;;;;11.20;99.90;;;;;;7331977;19;110120;-77
2022/11/19 02:32:50;;;;;;;;;;;11.10;99.90;;;;;;7332751;19;109536;-77
2022/11/19 02:35:27;;;;;;;;;;;11.10;99.90;;;;;;7329440;19;110968;-76
2022/11/19 02:37:58;;;;;;;;;;;11.10;99.90;;;;;;7333079;19;108505;-77
2022/11/19 02:40:27;;;;;;;;;;;11.10;99.90;;;;;;7340562;19;111300;-76
2022/11/19 02:42:54;;;;;;;;;;;11.10;99.90;;;;;;7338449;19;108579;-76
2022/11/19 02:45:29;;;;;;;;;;;11.10;99.90;;;;;;7337978;19;109766;-76
2022/11/19 02:47:59;;;;;;;;;;;11.10;99.90;;;;;;7336234;19;110653;-77
2022/11/19 02:50:33;;;;;;;;;;;11.10;99.90;;;;;;7336095;19;110267;-77
2022/11/19 02:53:02;;;;;;;;;;;11.10;99.90;;;;;;7336441;19;110324;-77
2022/11/19 02:55:29;;;;;;;;;;;11.10;99.90;;;;;;7333117;19;109060;-77
2022/11/19 02:57:56;;;;;;;;;;;11.10;99.90;;;;;;7335877;19;108371;-77
2022/11/19 03:06:07;;;;;;;;;;;11.10;99.90;;;;;;7339908;19;108695;-77
2022/11/19 03:08:34;;;;;;;;;;;11.00;99.90;;;;;;7337455;19;109331;-77
2022/11/19 03:11:25;;;;;;;;;;;11.00;99.90;;;;;;7338619;19;109564;-77
2022/11/19 03:16:53;;;;;;;;;;;11.00;99.90;;;;;;7336889;19;110247;-77
2022/11/19 03:19:20;;;;;;;;;;;10.90;99.90;;;;;;7338185;19;108673;-77
2022/11/19 03:21:53;;;;;;;;;;;10.60;99.90;;;;;;7339406;19;109627;-76
2022/11/19 03:24:24;;;;;;;;;;;10.50;99.90;;;;;;7337093;19;110513;-77
2022/11/19 03:26:57;;;;;;;;;;;10.50;99.90;;;;;;7344582;19;110150;-76
2022/11/19 03:29:25;;;;;;;;;;;10.40;99.90;;;;;;7335738;19;113318;-76
2022/11/19 03:31:57;;;;;;;;;;;10.30;99.90;;;;;;7338432;19;108703;-76
2022/11/19 03:34:27;;;;;;;;;;;10.20;99.90;;;;;;7337101;19;109129;-77
2022/11/19 03:36:57;;;;;;;;;;;10.20;99.90;;;;;;7337858;19;109811;-77
2022/11/19 03:39:24;;;;;;;;;;;10.10;99.90;;;;;;7336232;19;108286;-78
2022/11/19 03:41:52;;;;;;;;;;;10.00;99.90;;;;;;7337352;19;109164;-76
2022/11/19 03:44:23;;;;;;;;;;;9.90;99.90;;;;;;7332460;19;110201;-76
2022/11/19 03:46:52;;;;;;;;;;;9.70;99.90;;;;;;7335949;19;108479;-76
2022/11/19 03:49:21;;;;;;;;;;;9.60;99.90;;;;;;7339988;19;108973;-76
2022/11/19 03:52:09;;;;;;;;;;;9.50;99.90;;;;;;7334927;19;109099;-76
2022/11/19 03:54:37;;;;;;;;;;;9.40;99.90;;;;;;7335823;19;113892;-77
2022/11/19 03:57:05;;;;;;;;;;;9.30;99.90;;;;;;7337266;19;113338;-77
2022/11/19 03:59:33;;;;;;;;;;;9.30;99.90;;;;;;7337428;19;108772;-76
2022/11/19 04:02:02;;;;;;;;;;;9.20;99.90;;;;;;7337381;19;112096;-77
2022/11/19 04:04:36;;;;;;;;;;;9.10;99.90;;;;;;7333433;19;110894;-76
2022/11/19 04:07:08;;;;;;;;;;;9.00;99.90;;;;;;7336224;19;108897;-76
2022/11/19 04:09:35;;;;;;;;;;;8.90;99.90;;;;;;7339614;19;109462;-77
2022/11/19 04:12:02;;;;;;;;;;;8.80;99.90;;;;;;7338534;19;108428;-77
2022/11/19 04:14:29;;;;;;;;;;;8.70;99.90;;;;;;7335595;19;110370;-76
2022/11/19 04:16:56;;;;;;;;;;;8.70;99.90;;;;;;7337300;19;109354;-77
2022/11/19 04:19:23;;;;;;;;;;;8.70;99.90;;;;;;7336852;19;109461;-77
2022/11/19 04:21:50;;;;;;;;;;;8.70;99.90;;;;;;7336277;19;109598;-77
2022/11/19 04:24:17;;;;;;;;;;;8.80;99.90;;;;;;7336074;19;110382;-77
2022/11/19 04:26:44;;;;;;;;;;;8.80;99.90;;;;;;7334178;19;109014;-77
2022/11/19 04:29:11;;;;;;;;;;;8.80;99.90;;;;;;7336596;19;111761;-77
2022/11/19 04:31:38;;;;;;;;;;;8.80;99.90;;;;;;7340822;19;110717;-77
2022/11/19 04:34:05;;;;;;;;;;;8.80;99.90;;;;;;7335534;19;110471;-76
2022/11/19 04:36:32;;;;;;;;;;;8.80;99.90;;;;;;7335347;19;113646;-77
2022/11/19 04:38:59;;;;;;;;;;;8.80;99.90;;;;;;7333619;19;108705;-76
2022/11/19 04:41:26;;;;;;;;;;;8.80;99.90;;;;;;7338336;19;109304;-76
2022/11/19 04:43:53;;;;;;;;;;;8.60;99.90;;;;;;7333701;19;110313;-76
2022/11/19 04:46:20;;;;;;;;;;;8.60;99.90;;;;;;7336748;19;109178;-76
2022/11/19 04:48:47;;;;;;;;;;;8.60;99.90;;;;;;7333864;19;109351;-76
2022/11/19 04:51:14;;;;;;;;;;;8.60;99.90;;;;;;7336198;19;110650;-76
2022/11/19 04:53:41;;;;;;;;;;;8.60;99.90;;;;;;7338134;19;114054;-76
2022/11/19 04:56:08;;;;;;;;;;;8.60;99.90;;;;;;7337865;19;110468;-76
2022/11/19 04:58:35;;;;;;;;;;;8.60;99.90;;;;;;7336743;19;108996;-76
2022/11/19 05:01:02;;;;;;;;;;;8.60;99.90;;;;;;7336567;19;109311;-77
2022/11/19 05:03:29;;;;;;;;;;;8.60;99.90;;;;;;7329622;19;110307;-76
2022/11/19 05:05:56;;;;;;;;;;;8.40;99.90;;;;;;7336031;19;109717;-76
2022/11/19 05:08:23;;;;;;;;;;;8.20;99.90;;;;;;7335696;19;109669;-76
2022/11/19 05:10:50;;;;;;;;;;;8.10;99.90;;;;;;7333400;19;110037;-76
2022/11/19 05:13:17;;;;;;;;;;;8.10;99.90;;;;;;7335419;19;108856;-77
2022/11/19 05:15:44;;;;;;;;;;;8.10;99.90;;;;;;7339826;19;109473;-77
2022/11/19 05:18:12;;;;;;;;;;;8.10;99.90;;;;;;7333831;19;108790;-76
2022/11/19 05:20:38;;;;;;;;;;;8.10;99.90;;;;;;7333996;19;108193;-77
2022/11/19 05:23:05;;;;;;;;;;;8.10;99.90;;;;;;7334157;19;110412;-76
2022/11/19 05:25:32;;;;;;;;;;;8.10;99.90;;;;;;7333889;19;108942;-76
2022/11/19 05:27:59;;;;;;;;;;;8.00;99.90;;;;;;7335538;19;109994;-76
2022/11/19 05:30:26;;;;;;;;;;;8.00;99.90;;;;;;7335719;19;110873;-76
2022/11/19 05:32:53;;;;;;;;;;;8.00;99.90;;;;;;7335881;19;108383;-76
2022/11/19 05:35:20;;;;;;;;;;;8.00;99.90;;;;;;7332895;19;109114;-76
2022/11/19 05:37:47;;;;;;;;;;;8.00;99.90;;;;;;7338202;19;110279;-76
2022/11/19 05:40:15;;;;;;;;;;;8.00;99.90;;;;;;7334574;19;109431;-77
2022/11/19 05:42:42;;;;;;;;;;;8.00;99.90;;;;;;7333221;19;110136;-76
2022/11/19 05:45:09;;;;;;;;;;;8.00;99.90;;;;;;7335286;19;108292;-76
2022/11/19 05:47:36;;;;;;;;;;;7.90;99.90;;;;;;7333752;19;110648;-76
2022/11/19 05:50:03;;;;;;;;;;;7.70;99.90;;;;;;7332259;19;110839;-77
2022/11/19 05:52:30;;;;;;;;;;;7.50;99.90;;;;;;7336508;19;109264;-77
2022/11/19 05:54:57;;;;;;;;;;;7.30;99.90;;;;;;7332711;19;110142;-76
2022/11/19 05:57:24;;;;;;;;;;;7.20;99.90;;;;;;7335802;19;112246;-76
2022/11/19 05:59:51;;;;;;;;;;;7.20;99.90;;;;;;7340772;19;109649;-76
2022/11/19 06:02:18;;;;;;;;;;;7.10;99.90;;;;;;7332327;19;111783;-76
2022/11/19 06:04:45;;;;;;;;;;;7.20;99.90;;;;;;7334542;19;108410;-76
2022/11/19 06:07:12;;;;;;;;;;;7.20;99.90;;;;;;7334825;19;109272;-76
2022/11/19 06:09:39;;;;;;;;;;;7.10;99.90;;;;;;7330362;19;110140;-76
2022/11/19 06:12:06;;;;;;;;;;;7.00;99.90;;;;;;7334455;19;108339;-76
2022/11/19 06:14:33;;;;;;;;;;;6.90;99.90;;;;;;7336034;19;113162;-76
2022/11/19 06:17:00;;;;;;;;;;;7.00;99.90;;;;;;7340985;19;110302;-77
2022/11/19 06:19:26;;;;;;;;;;;7.10;99.90;;;;;;7344841;19;108958;-76
2022/11/19 06:21:53;;;;;;;;;;;7.10;99.90;;;;;;7341861;19;110276;-76
2022/11/19 06:24:21;;;;;;;;;;;7.20;99.90;;;;;;7340191;19;108412;-76
2022/11/19 06:26:47;;;;;;;;;;;7.10;99.90;;;;;;7339497;19;111313;-76
2022/11/19 06:29:15;;;;;;;;;;;7.00;99.90;;;;;;7339384;19;110120;-76
2022/11/19 06:31:43;;;;;;;;;;;7.00;99.90;;;;;;7339247;19;109910;-76
2022/11/19 06:34:10;;;;;;;;;;;7.00;99.90;;;;;;7338436;19;110077;-76
2022/11/19 06:36:37;;;;;;;;;;;7.00;99.90;;;;;;7337051;19;111128;-76
2022/11/19 06:39:10;;;;;;;;;;;6.90;99.90;;;;;;7341520;19;109731;-76
2022/11/19 06:41:37;;;;;;;;;;;6.90;99.90;;;;;;7342565;19;109162;-76
2022/11/19 06:44:04;;;;;;;;;;;6.90;99.90;;;;;;7338348;19;109428;-76
2022/11/19 06:46:31;;;;;;;;;;;6.90;99.90;;;;;;7340449;19;110220;-76
2022/11/19 06:48:58;;;;;;;;;;;6.80;99.90;;;;;;7339185;19;109352;-76
2022/11/19 06:51:24;;;;;;;;;;;6.80;99.90;;;;;;7339273;19;108761;-75
2022/11/19 06:53:51;;;;;;;;;;;6.70;99.90;;;;;;7339860;19;110209;-76
2022/11/19 06:56:18;;;;;;;;;;;6.70;99.90;;;;;;7340658;19;109286;-76
2022/11/19 06:58:45;;;;;;;;;;;6.70;99.90;;;;;;7336228;19;108560;-76
2022/11/19 07:01:13;;;;;;;;;;;6.60;99.90;;;;;;7338097;19;109090;-76
2022/11/19 07:03:41;;;;;;;;;;;6.50;99.90;;;;;;7342476;19;110251;-75
2022/11/19 07:06:08;;;;;;;;;;;6.50;99.90;;;;;;7338433;19;109113;-76
2022/11/19 07:08:36;;;;;;;;;;;6.30;99.90;;;;;;7336576;19;110230;-75
2022/11/19 07:11:24;;;;;;;;;;;6.30;99.90;;;;;;7339444;19;109772;-76
2022/11/19 07:13:56;;;;;;;;;;;6.20;99.90;;;;;;7336569;19;109583;-76
2022/11/19 07:16:28;;;;;;;;;;;6.20;99.90;;;;;;7337222;19;109413;-76
2022/11/19 07:18:58;;;;;;;;;;;6.10;99.90;;;;;;7340872;19;108496;-75
2022/11/19 07:21:26;;;;;;;;;;;6.10;99.90;;;;;;7337437;19;108912;-76
2022/11/19 07:23:57;;;;;;;;;;;6.00;99.90;;;;;;7336356;19;109617;-76
2022/11/19 07:26:23;;;;;;;;;;;6.00;99.90;;;;;;7340515;19;109249;-75
2022/11/19 07:28:51;;;;;;;;;;;5.90;99.90;;;;;;7335134;19;110777;-76
2022/11/19 07:31:18;;;;;;;;;;;5.90;99.90;;;;;;7336957;19;108702;-76
2022/11/19 07:33:45;;;;;;;;;;;6.00;99.90;;;;;;7337509;19;110402;-76
2022/11/19 07:36:12;;;;;;;;;;;6.00;99.90;;;;;;7337311;19;110421;-76
2022/11/19 07:38:44;;;;;;;;;;;6.10;99.90;;;;;;7335936;19;109362;-76
2022/11/19 07:43:57;;;;;;;;;;;6.10;99.90;;;;;;7336925;19;110186;-76
2022/11/19 07:46:24;;;;;;;;;;;6.10;99.90;;;;;;7337051;19;108376;-75
2022/11/19 07:48:54;;;;;;;;;;;6.10;99.90;;;;;;7340158;19;109532;-75
2022/11/19 07:51:21;;;;;;;;;;;6.20;99.90;;;;;;7336604;19;108761;-76
2022/11/19 07:53:49;;;;;;;;;;;6.20;99.90;;;;;;7335592;19;111444;-76
2022/11/19 07:56:16;;;;;;;;;;;6.10;99.90;;;;;;7338151;19;110084;-76
2022/11/19 07:58:43;;;;;;;;;;;6.00;99.90;;;;;;7337638;19;108728;-75
2022/11/19 08:01:17;;;;;;;;;;;5.90;99.90;;;;;;7336951;19;108685;-76
2022/11/19 08:03:47;;;;;;;;;;;5.90;99.90;;;;;;7334493;19;111072;-76
2022/11/19 08:06:22;;;;;;;;;;;5.80;99.90;;;;;;7335970;19;109492;-76
2022/11/19 08:08:49;;;;;;;;;;;5.80;99.90;;;;;;7342307;19;109759;-75
2022/11/19 08:11:16;;;;;;;;;;;5.70;99.90;;;;;;7337032;19;113168;-75
2022/11/19 08:13:43;;;;;;;;;;;5.70;99.90;;;;;;7337719;19;108474;-76
2022/11/19 08:16:11;;;;;;;;;;;5.70;99.90;;;;;;7338594;19;110478;-75
2022/11/19 08:18:38;;;;;;;;;;;5.70;99.90;;;;;;7336458;19;108867;-76
2022/11/19 08:21:06;;;;;;;;;;;5.70;99.90;;;;;;7335131;19;109649;-77
2022/11/19 08:23:34;;;;;;;;;;;5.70;99.90;;;;;;7334409;19;110327;-76
2022/11/19 08:26:00;;;;;;;;;;;5.70;99.90;;;;;;7335257;19;109845;-77
2022/11/19 08:28:27;;;;;;;;;;;5.70;99.90;;;;;;7335938;19;109531;-77
2022/11/19 08:30:54;;;;;;;;;;;5.60;99.90;;;;;;7341044;19;109303;-77
2022/11/19 08:33:21;;;;;;;;;;;5.70;99.90;;;;;;7336634;19;108783;-77
2022/11/19 08:35:53;;;;;;;;;;;5.80;99.90;;;;;;7333932;19;112929;-77
2022/11/19 08:38:20;;;;;;;;;;;5.80;99.90;;;;;;7333966;19;109762;-77
2022/11/19 08:40:51;;;;;;;;;;;5.80;99.90;;;;;;7334075;19;108448;-77
2022/11/19 08:43:18;;;;;;;;;;;5.80;99.90;;;;;;7333785;19;113392;-77
2022/11/19 08:45:51;;;;;;;;;;;5.70;99.90;;;;;;7335524;19;108400;-77
2022/11/19 08:48:18;;;;;;;;;;;5.60;99.90;;;;;;7336735;19;112250;-77
2022/11/19 08:50:45;;;;;;;;;;;5.40;99.90;;;;;;7334866;19;111218;-77
2022/11/19 08:53:12;;;;;;;;;;;5.40;99.90;;;;;;7341741;19;108938;-78
2022/11/19 08:55:39;;;;;;;;;;;5.40;99.90;;;;;;7333612;19;110254;-78
2022/11/19 08:58:06;;;;;;;;;;;5.40;99.90;;;;;;7334315;19;108814;-77
2022/11/19 09:00:34;;;;;;;;;;;5.50;99.90;;;;;;7332699;19;109804;-78
2022/11/19 09:03:01;;;;;;;;;;;5.70;99.90;;;;;;7334070;19;113555;-78
2022/11/19 09:05:28;;;;;;;;;;;5.80;99.90;;;;;;7333986;19;108660;-77
2022/11/19 09:07:55;;;;;;;;;;;6.00;99.90;;;;;;7333595;19;110346;-77
2022/11/19 09:10:23;;;;;;;;;;;6.10;99.90;;;;;;7334605;19;110475;-77
2022/11/19 09:12:51;;;;;;;;;;;6.20;99.90;;;;;;7336311;19;110379;-77
2022/11/19 09:15:19;;;;;;;;;;;6.30;99.90;;;;;;7343427;19;109796;-77
2022/11/19 09:17:46;;;;;;;;;;;6.20;99.90;;;;;;7333956;19;110305;-80
2022/11/19 09:20:13;;;;;;;;;;;6.20;99.90;;;;;;7335380;19;110695;-79
2022/11/19 09:22:40;;;;;;;;;;;6.00;99.90;;;;;;7335230;19;110391;-77
2022/11/19 09:25:07;;;;;;;;;;;5.90;99.90;;;;;;7333066;19;108399;-79
2022/11/19 09:27:35;;;;;;;;;;;5.80;99.90;;;;;;7334701;19;109215;-78
2022/11/19 09:30:05;;;;;;;;;;;5.80;99.90;;;;;;7334509;19;111113;-78
2022/11/19 09:32:32;;;;;;;;;;;5.70;99.90;;;;;;7334115;19;108970;-77
2022/11/19 09:34:59;;;;;;;;;;;5.70;99.90;;;;;;7334550;19;109943;-77
2022/11/19 09:37:30;;;;;;;;;;;5.70;99.90;;;;;;7344428;19;110226;-77
2022/11/19 09:39:57;;;;;;;;;;;5.70;99.90;;;;;;7336974;19;109272;-77
2022/11/19 09:42:34;;;;;;;;;;;5.80;99.90;;;;;;7330590;19;109298;-77
2022/11/19 09:45:01;;;;;;;;;;;5.90;99.90;;;;;;7332986;19;109533;-77
2022/11/19 09:47:40;;;;;;;;;;;6.10;99.90;;;;;;7331525;19;110403;-77
2022/11/19 09:50:25;;;;;;;;;;;6.20;99.90;;;;;;7342568;19;110473;-77
2022/11/19 09:52:55;;;;;;;;;;;6.30;99.90;;;;;;7342752;19;109066;-77
2022/11/19 09:55:28;;;;;;;;;;;6.20;99.90;;;;;;7342348;19;109127;-77
2022/11/19 09:57:56;;;;;;;;;;;6.20;99.90;;;;;;7344401;19;110008;-78
2022/11/19 10:00:24;;;;;;;;;;;6.20;99.90;;;;;;7347549;19;108385;-77
2022/11/19 10:02:52;;;;;;;;;;;6.30;99.90;;;;;;7342264;19;110201;-76
2022/11/19 10:05:25;;;;;;;;;;;6.30;99.90;;;;;;7342349;19;108555;-77
2022/11/19 10:08:04;;;;;;;;;;;6.30;99.90;;;;;;7342291;19;108684;-76
2022/11/19 10:10:33;;;;;;;;;;;6.20;99.90;;;;;;7339077;19;109065;-76
2022/11/19 10:13:21;;;;;;;;;;;6.00;99.90;;;;;;7339779;19;108661;-77
2022/11/19 10:15:53;;;;;;;;;;;5.80;99.90;;;;;;7341641;19;109580;-76
2022/11/19 10:18:38;;;;;;;;;;;5.60;99.90;;;;;;7341636;19;110710;-77
2022/11/19 10:21:10;;;;;;;;;;;5.50;99.90;;;;;;7348326;19;110160;-78
2022/11/19 10:23:59;;;;;;;;;;;5.50;99.90;;;;;;7340327;19;110510;-76
2022/11/19 10:26:32;;;;;;;;;;;5.60;99.90;;;;;;7341494;19;110095;-76
2022/11/19 10:29:00;;;;;;;;;;;5.70;99.90;;;;;;7343156;19;109456;-76
2022/11/19 10:31:38;;;;;;;;;;;5.70;99.90;;;;;;7338498;19;110664;-76
2022/11/19 10:34:05;;;;;;;;;;;5.60;99.90;;;;;;7340692;19;108867;-76
2022/11/19 10:36:37;;;;;;;;;;;5.60;99.90;;;;;;7340317;19;109778;-76
2022/11/19 10:39:06;;;;;;;;;;;5.60;99.90;;;;;;7339409;19;110412;-76
2022/11/19 10:41:35;;;;;;;;;;;5.70;99.90;;;;;;7339223;19;108426;-76
2022/11/19 10:44:36;;;;;;;;;;;5.70;99.90;;;;;;7347058;19;112495;-78
2022/11/19 10:47:09;;;;;;;;;;;5.70;99.90;;;;;;7340746;19;108467;-77
2022/11/19 10:49:38;;;;;;;;;;;5.60;99.90;;;;;;7337806;19;110318;-76
2022/11/19 10:52:08;;;;;;;;;;;5.60;99.90;;;;;;7339976;19;110230;-76
2022/11/19 10:54:35;;;;;;;;;;;5.50;99.90;;;;;;7336471;19;109586;-76
2022/11/19 10:57:02;;;;;;;;;;;5.40;99.90;;;;;;7341442;19;108772;-76
2022/11/19 10:59:31;;;;;;;;;;;5.40;99.90;;;;;;7339819;19;110245;-76
2022/11/19 11:02:15;;;;;;;;;;;5.40;99.90;;;;;;7339997;19;108407;-77
2022/11/19 11:05:03;;;;;;;;;;;5.50;99.90;;;;;;7336946;19;109782;-76
2022/11/19 11:07:50;;;;;;;;;;;5.60;99.90;;;;;;7343796;19;111605;-76
2022/11/19 11:10:26;;;;;;;;;;;5.50;99.90;;;;;;7339927;19;110560;-76
2022/11/19 11:15:49;;;;;;;;;;;5.20;99.90;;;;;;7337035;19;108646;-77
2022/11/19 11:18:17;;;;;;;;;;;5.10;99.90;;;;;;7340520;19;109738;-76
2022/11/19 11:20:46;;;;;;;;;;;5.10;99.90;;;;;;7339229;19;111817;-76
2022/11/19 11:23:16;;;;;;;;;;;5.10;99.90;;;;;;7340061;19;109011;-76
2022/11/19 11:26:01;;;;;;;;;;;5.10;99.90;;;;;;7337524;19;110422;-76
2022/11/19 11:28:28;;;;;;;;;;;5.30;99.90;;;;;;7339108;19;110464;-76
2022/11/19 11:30:57;;;;;;;;;;;5.40;99.90;;;;;;7347010;19;108667;-76
2022/11/19 11:33:24;;;;;;;;;;;5.40;99.90;;;;;;7339465;19;110372;-76
2022/11/19 11:35:51;;;;;;;;;;;5.50;99.90;;;;;;7337921;19;108473;-77
2022/11/19 11:38:20;;;;;;;;;;;5.50;99.90;;;;;;7339721;19;109304;-76
2022/11/19 11:41:01;;;;;;;;;;;5.40;99.90;;;;;;7337331;19;110373;-76
2022/11/19 11:44:01;;;;;;;;;;;5.40;99.90;;;;;;7335775;19;109743;-77
2022/11/19 11:46:40;;;;;;;;;;;5.40;99.90;;;;;;7339064;19;108899;-76
2022/11/19 11:49:19;;;;;;;;;;;5.50;99.90;;;;;;7338756;19;111513;-76
2022/11/19 11:51:53;;;;;;;;;;;5.50;99.90;;;;;;7338211;19;109143;-77
2022/11/19 11:54:20;;;;;;;;;;;5.60;99.90;;;;;;7343773;19;109091;-76
2022/11/19 11:56:47;;;;;;;;;;;5.60;99.90;;;;;;7324209;19;109977;-77
2022/11/19 11:59:14;;;;;;;;;;;5.60;99.90;;;;;;7328910;19;110419;-77
2022/11/19 12:01:47;;;;;;;;;;;5.60;99.90;;;;;;7335021;19;110125;-77
2022/11/19 12:04:14;;;;;;;;;;;5.60;99.90;;;;;;7338197;19;110621;-77
2022/11/19 12:06:47;;;;;;;;;;;5.70;99.90;;;;;;7337384;19;110702;-77
2022/11/19 12:09:20;;;;;;;;;;;5.70;99.90;;;;;;7337136;19;110849;-77
2022/11/19 12:11:54;;;;;;;;;;;5.70;99.90;;;;;;7336160;19;108444;-77
2022/11/19 12:14:24;;;;;;;;;;;5.70;99.90;;;;;;7337610;19;108496;-76
2022/11/19 12:17:03;;;;;;;;;;;5.80;99.90;;;;;;7344133;19;109208;-77
2022/11/19 12:19:42;;;;;;;;;;;5.90;99.90;;;;;;7338473;19;109341;-77
2022/11/19 12:22:10;;;;;;;;;;;6.00;99.90;;;;;;7338074;19;110192;-76
2022/11/19 12:24:52;;;;;;;;;;;6.00;99.90;;;;;;7336923;19;108265;-78
2022/11/19 12:27:38;;;;;;;;;;;6.00;99.90;;;;;;7336420;19;111786;-77
2022/11/19 12:30:05;;;;;;;;;;;6.10;99.90;;;;;;7337916;19;113519;-77
2022/11/19 12:32:48;;;;;;;;;;;6.10;99.90;;;;;;7337292;19;109534;-77
2022/11/19 12:35:18;;;;;;;;;;;6.00;99.90;;;;;;7337568;19;109505;-77
2022/11/19 12:37:48;;;;;;;;;;;5.90;99.90;;;;;;7341783;19;108995;-77
2022/11/19 12:40:30;;;;;;;;;;;5.70;99.90;;;;;;7335448;19;109233;-77
2022/11/19 12:43:25;;;;;;;;;;;5.70;99.90;;;;;;7337025;19;113033;-77
2022/11/19 12:46:11;;;;;;;;;;;5.70;99.90;;;;;;7337410;19;108739;-76
2022/11/19 12:48:47;;;;;;;;;;;5.50;99.90;;;;;;7335074;19;109183;-76
2022/11/19 12:51:32;;;;;;;;;;;5.50;99.90;;;;;;7337314;19;110634;-77
2022/11/19 12:54:05;;;;;;;;;;;5.50;99.90;;;;;;7337084;19;108830;-76
2022/11/19 12:56:42;;;;;;;;;;;5.70;99.90;;;;;;7335506;19;108469;-77
2022/11/19 12:59:27;;;;;;;;;;;5.70;99.90;;;;;;7336491;19;109999;-77
2022/11/19 13:01:54;;;;;;;;;;;5.60;99.90;;;;;;7342211;19;108417;-77
2022/11/19 13:04:21;;;;;;;;;;;5.50;99.90;;;;;;7334167;19;110777;-76
2022/11/19 13:07:05;;;;;;;;;;;5.50;99.90;;;;;;7334405;19;109056;-77
2022/11/19 13:09:43;;;;;;;;;;;5.50;99.90;;;;;;7335222;19;109680;-77
2022/11/19 13:12:18;;;;;;;;;;;5.40;99.90;;;;;;7334641;19;111002;-76
2022/11/19 13:14:51;;;;;;;;;;;5.40;99.90;;;;;;7333649;19;109241;-77
2022/11/19 13:17:20;;;;;;;;;;;5.40;99.90;;;;;;7335996;19;111625;-77
2022/11/19 13:19:50;;;;;;;;;;;5.30;99.90;;;;;;7333571;19;110264;-78
2022/11/19 13:22:23;;;;;;;;;;;5.30;99.90;;;;;;7335055;19;109019;-77
2022/11/19 13:24:54;;;;;;;;;;;5.30;99.90;;;;;;7333603;19;110770;-77
2022/11/19 13:27:24;;;;;;;;;;;5.50;99.90;;;;;;7331642;19;110646;-77
2022/11/19 13:30:05;;;;;;;;;;;5.60;99.90;;;;;;7334210;19;111363;-78
2022/11/19 13:32:37;;;;;;;;;;;5.80;99.90;;;;;;7331175;19;110276;-77
2022/11/19 13:35:11;;;;;;;;;;;5.80;99.90;;;;;;7334946;19;108619;-78
2022/11/19 13:37:40;;;;;;;;;;;5.90;99.90;;;;;;7299301;19;109554;-77
2022/11/19 13:40:20;;;;;;;;;;;5.90;99.90;;;;;;7338554;19;109556;-77
2022/11/19 13:46:13;;;;;;;;;;;5.90;99.90;;;;;;7340434;19;110011;-79
2022/11/19 13:48:44;;;;;;;;;;;5.80;99.90;;;;;;7342842;19;110229;-80
2022/11/19 13:51:19;;;;;;;;;;;5.70;99.90;;;;;;7339902;19;109733;-79
2022/11/19 13:53:46;;;;;;;;;;;5.70;99.90;;;;;;7337116;19;110425;-78
2022/11/19 13:57:04;;;;;;;;;;;5.70;99.90;;;;;;7288733;19;110009;-77
2022/11/19 13:59:45;;;;;;;;;;;5.90;99.90;;;;;;7332484;19;108901;-77
2022/11/19 14:02:25;;;;;;;;;;;6.00;99.90;;;;;;7332593;19;110279;-78
2022/11/19 14:04:54;;;;;;;;;;;5.80;99.90;;;;;;7334526;19;108617;-77
2022/11/19 14:07:40;;;;;;;;;;;5.60;99.90;;;;;;7336164;19;109844;-77
2022/11/19 14:10:25;;;;;;;;;;;5.40;99.90;;;;;;7335716;19;110171;-77
2022/11/19 14:12:58;;;;;;;;;;;5.30;99.90;;;;;;7337875;19;108671;-77
2022/11/19 14:27:11;;;;;;;;;;;5.20;99.90;;;;;;7329037;19;108921;-76
2022/11/19 14:29:44;;;;;;;;;;;5.30;99.90;;;;;;7329008;19;109213;-77
2022/11/19 14:32:11;;;;;;;;;;;5.50;99.90;;;;;;7329542;19;110417;-77
2022/11/19 14:35:01;;;;;;;;;;;5.60;99.90;;;;;;7230424;19;110872;-78
2022/11/19 14:37:33;;;;;;;;;;;5.70;99.90;;;;;;7317192;19;110420;-77
2022/11/19 14:40:09;;;;;;;;;;;5.70;99.90;;;;;;7261320;19;110666;-76
2022/11/19 14:46:00;;;;;;;;;;;5.70;99.90;;;;;;7334347;19;110118;-76
2022/11/19 14:48:31;;;;;;;;;;;5.70;99.90;;;;;;7337806;19;108930;-76
2022/11/19 14:51:18;;;;;;;;;;;5.70;99.90;;;;;;7337585;19;113279;-76
2022/11/19 14:54:00;;;;;;;;;;;5.80;99.90;;;;;;7334485;19;110232;-76
2022/11/19 14:56:27;;;;;;;;;;;5.80;99.90;;;;;;7334638;19;109009;-75
2022/11/19 14:58:54;;;;;;;;;;;5.70;99.90;;;;;;7343311;19;109247;-76
2022/11/19 15:01:21;;;;;;;;;;;5.60;99.90;;;;;;7340158;19;108395;-77
2022/11/19 15:03:54;;;;;;;;;;;5.50;99.90;;;;;;7339263;19;109333;-76
2022/11/19 15:06:22;;;;;;;;;;;5.60;99.90;;;;;;7340088;19;111486;-77
2022/11/19 15:08:57;;;;;;;;;;;5.60;99.90;;;;;;7339077;19;108538;-76